Time;durP1;ratioP1;P1;durP2;ratioP2;P2;SDS_P1;SDS_P2;PMS_P1;PMS_P2;Temp;Humidity;BMP_temperature;BMP_pressure;BME280_temperature;BME280_humidity;BME280_pressure;Samples;Min_cycle;Max_cycle;Signal;HPM_P1;HPM_P2
2024/04/18 00:00:29;;;;;;;;;;;;;;;4.88;100.00;93433.31;11231213;26;19932;-71
2024/04/18 00:05:30;;;;;;;;;;;;;;;5.04;100.00;93439.41;11241961;26;20344;-70
2024/04/18 00:10:30;;;;;;;;;;;;;;;4.96;100.00;93446.06;11252081;26;19936;-70
2024/04/18 00:15:31;;;;;;;;;;;;;;;4.97;100.00;93438.88;11250522;26;19993;-70
2024/04/18 00:20:31;;;;;;;;;;;;;;;4.99;100.00;93436.75;11224065;26;19936;-70
2024/04/18 00:25:32;;;;;;;;;;;;;;;5.08;100.00;93439.63;11214396;26;19953;-70
2024/04/18 00:30:32;;;;;;;;;;;;;;;5.05;100.00;93440.19;11229896;26;20263;-70
2024/04/18 00:35:33;;;;;;;;;;;;;;;4.98;100.00;93419.16;11221454;26;19932;-70
2024/04/18 00:40:33;;;;;;;;;;;;;;;5.09;100.00;93401.31;11248718;26;20320;-70
2024/04/18 00:45:33;;;;;;;;;;;;;;;4.99;100.00;93407.47;11232917;26;19936;-70
2024/04/18 00:50:33;;;;;;;;;;;;;;;4.91;100.00;93432.78;11222220;26;19936;-70
2024/04/18 00:55:35;;;;;;;;;;;;;;;4.91;100.00;93418.66;11236299;26;20393;-70
2024/04/18 01:00:36;;;;;;;;;;;;;;;4.92;100.00;93406.94;11243270;26;20293;-71
2024/04/18 01:05:36;;;;;;;;;;;;;;;4.90;100.00;93401.91;11223807;26;19928;-71
2024/04/18 01:10:36;;;;;;;;;;;;;;;4.79;100.00;93406.44;11222519;26;19928;-70
2024/04/18 01:15:36;;;;;;;;;;;;;;;4.68;100.00;93409.41;11254142;26;19947;-70
2024/04/18 01:20:37;;;;;;;;;;;;;;;4.65;100.00;93418.72;11240601;26;19928;-70
2024/04/18 01:25:37;;;;;;;;;;;;;;;4.58;100.00;93416.31;11250400;26;19961;-70
2024/04/18 01:30:38;;;;;;;;;;;;;;;4.77;100.00;93415.75;11249655;26;19936;-71
2024/04/18 01:35:38;;;;;;;;;;;;;;;4.80;100.00;93407.25;11244942;26;19936;-70
2024/04/18 01:40:38;;;;;;;;;;;;;;;4.77;100.00;93402.44;11228285;26;19935;-71
2024/04/18 01:45:39;;;;;;;;;;;;;;;4.96;100.00;93400.00;11227146;26;19936;-70
2024/04/18 01:50:39;;;;;;;;;;;;;;;4.97;100.00;93407.72;11212345;26;19935;-70
2024/04/18 01:55:39;;;;;;;;;;;;;;;5.04;100.00;93406.66;11219617;26;19928;-70
2024/04/18 02:00:43;;;;;;;;;;;;;;;5.08;100.00;93408.50;11229499;26;19929;-71
2024/04/18 02:05:43;;;;;;;;;;;;;;;4.95;100.00;93417.06;11220038;26;19929;-71
2024/04/18 02:10:43;;;;;;;;;;;;;;;4.78;100.00;93434.13;11252836;26;19978;-71
2024/04/18 02:15:44;;;;;;;;;;;;;;;4.97;100.00;93433.56;11220633;26;19942;-71
2024/04/18 02:20:44;;;;;;;;;;;;;;;5.09;100.00;93433.25;11199750;26;19928;-71
2024/04/18 02:25:44;;;;;;;;;;;;;;;5.09;100.00;93433.25;11220521;26;20332;-71
2024/04/18 02:30:44;;;;;;;;;;;;;;;5.24;100.00;93425.22;11252995;26;19929;-71
2024/04/18 02:35:45;;;;;;;;;;;;;;;5.26;100.00;93427.59;11224543;26;19929;-71
2024/04/18 02:40:45;;;;;;;;;;;;;;;5.22;100.00;93437.22;11246822;26;19935;-71
2024/04/18 02:45:46;;;;;;;;;;;;;;;5.29;100.00;93438.53;11242495;26;19935;-70
2024/04/18 02:50:46;;;;;;;;;;;;;;;5.19;100.00;93446.56;11237042;26;19935;-71
2024/04/18 02:55:46;;;;;;;;;;;;;;;5.30;100.00;93439.31;11245691;26;19929;-70
2024/04/18 03:00:46;;;;;;;;;;;;;;;5.29;100.00;93437.75;11190539;26;19940;-70
2024/04/18 03:05:47;;;;;;;;;;;;;;;5.34;100.00;93436.91;11246253;26;19954;-71
2024/04/18 03:10:48;;;;;;;;;;;;;;;5.18;100.00;93439.63;11218590;26;19929;-71
2024/04/18 03:15:48;;;;;;;;;;;;;;;5.27;100.00;93453.19;11233274;26;20545;-70
2024/04/18 03:20:52;;;;;;;;;;;;;;;5.31;100.00;93465.69;11245529;26;19929;-71
2024/04/18 03:25:52;;;;;;;;;;;;;;;5.38;100.00;93453.94;11257252;26;19936;-71
2024/04/18 03:30:53;;;;;;;;;;;;;;;5.37;100.00;93455.00;11222745;26;19928;-71
2024/04/18 03:35:53;;;;;;;;;;;;;;;5.36;100.00;93453.41;11257380;26;19997;-71
2024/04/18 03:40:55;;;;;;;;;;;;;;;5.26;100.00;93452.41;11223401;26;19929;-71
2024/04/18 03:45:59;;;;;;;;;;;;;;;5.46;100.00;93451.50;11257157;26;19936;-71
2024/04/18 03:50:59;;;;;;;;;;;;;;;5.54;100.00;93466.16;11224320;26;20737;-71
2024/04/18 03:55:59;;;;;;;;;;;;;;;5.14;100.00;93475.88;11222292;26;19936;-71
2024/04/18 04:01:00;;;;;;;;;;;;;;;5.00;100.00;93480.16;11210855;26;19928;-70
2024/04/18 04:06:00;;;;;;;;;;;;;;;5.01;100.00;93487.06;11226116;26;19929;-70
2024/04/18 04:11:00;;;;;;;;;;;;;;;4.94;100.00;93495.34;11248913;26;20233;-70
2024/04/18 04:16:00;;;;;;;;;;;;;;;4.78;100.00;93511.31;11255498;26;19964;-70
2024/04/18 04:21:01;;;;;;;;;;;;;;;4.86;100.00;93515.31;11247640;26;20352;-70
2024/04/18 04:26:01;;;;;;;;;;;;;;;5.00;100.00;93536.88;11218484;26;19958;-71
2024/04/18 04:31:01;;;;;;;;;;;;;;;5.12;100.00;93539.22;11219082;26;19933;-70
2024/04/18 04:36:01;;;;;;;;;;;;;;;5.22;100.00;93531.25;11223866;26;19941;-75
2024/04/18 04:41:02;;;;;;;;;;;;;;;5.23;100.00;93551.50;11224693;26;20328;-73
2024/04/18 04:46:02;;;;;;;;;;;;;;;5.22;100.00;93557.88;11215635;26;19961;-71
2024/04/18 04:51:03;;;;;;;;;;;;;;;5.16;100.00;93572.25;11251480;26;20282;-72
2024/04/18 04:56:04;;;;;;;;;;;;;;;5.50;100.00;93571.69;11213448;26;19979;-74
2024/04/18 05:01:04;;;;;;;;;;;;;;;5.75;100.00;93564.69;11248491;26;20432;-77
2024/04/18 05:06:04;;;;;;;;;;;;;;;5.89;100.00;93571.03;11249157;26;20032;-73
2024/04/18 05:11:04;;;;;;;;;;;;;;;6.04;100.00;93574.75;11207007;26;20512;-73
2024/04/18 05:16:05;;;;;;;;;;;;;;;6.23;100.00;93577.59;11251811;26;20277;-73
2024/04/18 05:21:05;;;;;;;;;;;;;;;6.32;100.00;93579.44;11221651;26;19934;-74
2024/04/18 05:26:05;;;;;;;;;;;;;;;6.38;100.00;93579.38;11240669;26;20005;-74
2024/04/18 05:31:06;;;;;;;;;;;;;;;6.40;100.00;93577.25;11251212;26;19972;-74
2024/04/18 05:36:07;;;;;;;;;;;;;;;6.63;100.00;93581.91;11189127;26;20631;-74
2024/04/18 05:41:07;;;;;;;;;;;;;;;7.09;100.00;93586.16;11248994;26;19935;-75
2024/04/18 05:46:07;;;;;;;;;;;;;;;7.50;100.00;93577.75;11217343;26;19932;-74
2024/04/18 05:51:08;;;;;;;;;;;;;;;7.91;100.00;93584.59;11252135;26;19929;-74
2024/04/18 05:56:08;;;;;;;;;;;;;;;8.41;100.00;93584.25;11251105;26;19936;-74
2024/04/18 06:01:08;;;;;;;;;;;;;;;8.81;100.00;93592.06;11243991;26;19928;-76
2024/04/18 06:06:10;;;;;;;;;;;;;;;8.92;100.00;93581.97;11250481;26;20478;-76
2024/04/18 06:11:10;;;;;;;;;;;;;;;8.83;100.00;93579.16;11254409;26;19935;-76
2024/04/18 06:16:11;;;;;;;;;;;;;;;9.56;100.00;93558.16;11263755;26;20004;-76
2024/04/18 06:21:11;;;;;;;;;;;;;;;10.30;100.00;93559.97;11280292;26;19928;-74
2024/04/18 06:26:11;;;;;;;;;;;;;;;10.98;100.00;93553.97;11294634;26;19928;-74
2024/04/18 06:31:13;;;;;;;;;;;;;;;10.93;100.00;93560.25;11256974;26;20379;-72
2024/04/18 06:36:13;;;;;;;;;;;;;;;11.02;100.00;93574.53;11244992;26;19942;-74
2024/04/18 06:41:13;;;;;;;;;;;;;;;10.92;100.00;93580.16;11279216;26;19939;-77
2024/04/18 06:46:13;;;;;;;;;;;;;;;10.93;100.00;93590.63;11300721;26;19927;-75
2024/04/18 06:51:14;;;;;;;;;;;;;;;10.83;100.00;93579.28;11246504;26;19928;-74
2024/04/18 06:56:14;;;;;;;;;;;;;;;10.48;100.00;93598.59;11250717;26;19928;-76
2024/04/18 07:01:14;;;;;;;;;;;;;;;10.03;100.00;93591.09;11277209;26;19928;-76
2024/04/18 07:06:14;;;;;;;;;;;;;;;10.93;100.00;93589.81;11294331;26;20446;-79
2024/04/18 07:11:15;;;;;;;;;;;;;;;11.68;99.69;93595.59;11219549;26;20376;-74
2024/04/18 07:16:15;;;;;;;;;;;;;;;10.23;100.00;93611.38;11163971;26;19997;-77
2024/04/18 07:21:15;;;;;;;;;;;;;;;9.40;100.00;93619.28;11194359;26;20001;-71
2024/04/18 07:26:16;;;;;;;;;;;;;;;9.28;100.00;93621.63;11229198;26;20389;-71
2024/04/18 07:31:16;;;;;;;;;;;;;;;9.66;100.00;93621.56;11272760;26;19932;-69
2024/04/18 07:36:21;;;;;;;;;;;;;;;9.86;100.00;93620.41;11224013;26;19928;-74
2024/04/18 07:41:21;;;;;;;;;;;;;;;9.37;100.00;93634.06;11152300;26;20318;-76
2024/04/18 07:46:24;;;;;;;;;;;;;;;9.52;100.00;93649.13;11110543;26;19994;-74
2024/04/18 07:51:24;;;;;;;;;;;;;;;9.19;100.00;93646.41;11155654;26;19947;-77
2024/04/18 07:56:25;;;;;;;;;;;;;;;9.83;100.00;93650.50;11127206;26;19933;-75
2024/04/18 08:01:28;;;;;;;;;;;;;;;11.27;97.42;93658.44;11147031;26;19941;-72
2024/04/18 08:06:28;;;;;;;;;;;;;;;12.08;78.13;93662.19;11147575;26;20662;-75
2024/04/18 08:11:28;;;;;;;;;;;;;;;13.08;73.52;93665.38;11159665;26;19933;-75
2024/04/18 08:16:28;;;;;;;;;;;;;;;13.85;73.31;93658.41;11157307;26;19964;-78
2024/04/18 08:21:29;;;;;;;;;;;;;;;14.90;61.43;93656.53;11144713;26;20006;-78
2024/04/18 08:26:29;;;;;;;;;;;;;;;14.24;64.19;93684.75;11174095;26;19940;-74
2024/04/18 08:31:34;;;;;;;;;;;;;;;12.65;73.37;93691.91;11171087;26;19929;-68
2024/04/18 08:36:34;;;;;;;;;;;;;;;12.34;80.25;93697.34;11171836;26;20239;-70
2024/04/18 08:41:34;;;;;;;;;;;;;;;11.86;83.10;93693.41;11218724;26;19928;-70
2024/04/18 08:46:39;;;;;;;;;;;;;;;11.39;79.65;93704.44;11237362;26;19940;-70
2024/04/18 08:51:39;;;;;;;;;;;;;;;10.75;85.95;93705.22;11217931;26;19936;-69
2024/04/18 08:56:45;;;;;;;;;;;;;;;10.76;92.13;93698.75;11240227;26;19928;-69
2024/04/18 09:01:45;;;;;;;;;;;;;;;10.82;90.91;93701.34;11248566;26;19928;-71
2024/04/18 09:06:46;;;;;;;;;;;;;;;11.46;89.83;93712.09;11214774;26;20268;-70
2024/04/18 09:11:49;;;;;;;;;;;;;;;11.30;80.85;93714.31;11224946;26;19938;-70
2024/04/18 09:16:49;;;;;;;;;;;;;;;11.07;92.54;93725.00;11245566;26;19956;-70
2024/04/18 09:21:49;;;;;;;;;;;;;;;11.24;98.92;93727.06;11247461;26;19928;-70
2024/04/18 09:26:49;;;;;;;;;;;;;;;11.43;95.03;93735.00;11245972;26;20335;-78
2024/04/18 09:31:51;;;;;;;;;;;;;;;11.45;90.24;93738.19;11246024;26;19997;-74
2024/04/18 09:36:51;;;;;;;;;;;;;;;12.08;90.24;93732.19;11191688;26;19940;-74
2024/04/18 09:41:56;;;;;;;;;;;;;;;12.00;76.44;93732.94;11240482;26;19935;-73
2024/04/18 09:46:58;;;;;;;;;;;;;;;11.30;73.63;93719.69;11215984;26;19932;-73
2024/04/18 09:51:58;;;;;;;;;;;;;;;11.59;78.19;93737.34;11236956;26;20245;-73
2024/04/18 09:56:59;;;;;;;;;;;;;;;13.33;75.28;93721.28;11252188;26;19929;-73
2024/04/18 10:01:59;;;;;;;;;;;;;;;18.09;49.44;93702.84;11239542;26;20001;-74
2024/04/18 10:07:00;;;;;;;;;;;;;;;18.14;46.92;93697.16;11243386;26;19956;-74
2024/04/18 10:12:01;;;;;;;;;;;;;;;16.86;45.86;93701.84;11215263;26;19934;-74
2024/04/18 10:17:02;;;;;;;;;;;;;;;14.10;53.58;93725.47;11252488;26;20016;-74
2024/04/18 10:22:03;;;;;;;;;;;;;;;12.53;62.94;93725.94;11250234;26;19937;-73
2024/04/18 10:27:07;;;;;;;;;;;;;;;11.27;69.07;93725.69;11251063;26;19997;-73
2024/04/18 10:32:08;;;;;;;;;;;;;;;11.61;69.62;93727.88;11251461;26;20302;-74
2024/04/18 10:37:08;;;;;;;;;;;;;;;12.83;74.91;93725.13;11251135;26;20018;-74
2024/04/18 10:42:09;;;;;;;;;;;;;;;12.81;79.12;93738.13;11241705;26;19932;-74
2024/04/18 10:47:11;;;;;;;;;;;;;;;12.86;80.81;93726.41;11252048;26;19929;-74
2024/04/18 10:52:14;;;;;;;;;;;;;;;12.54;83.55;93735.63;11211135;26;19928;-73
2024/04/18 10:57:15;;;;;;;;;;;;;;;12.42;80.85;93737.00;11251572;26;19928;-74
2024/04/18 11:02:15;;;;;;;;;;;;;;;12.18;89.19;93741.94;11250275;26;19936;-74
2024/04/18 11:07:17;;;;;;;;;;;;;;;12.69;92.10;93748.69;11218583;26;19965;-74
2024/04/18 11:12:18;;;;;;;;;;;;;;;12.58;81.91;93750.88;11251699;26;20345;-73
2024/04/18 11:17:18;;;;;;;;;;;;;;;12.16;83.99;93750.31;11250952;26;20006;-75
2024/04/18 11:22:18;;;;;;;;;;;;;;;12.38;86.16;93757.59;11241665;26;20351;-74
2024/04/18 11:27:19;;;;;;;;;;;;;;;12.59;81.23;93755.16;11192239;26;19929;-74
2024/04/18 11:32:19;;;;;;;;;;;;;;;12.72;73.87;93758.84;11231552;26;19935;-74
2024/04/18 11:37:19;;;;;;;;;;;;;;;12.60;76.36;93764.03;11249327;26;19941;-74
2024/04/18 11:42:19;;;;;;;;;;;;;;;12.27;85.62;93770.50;11249195;26;20029;-74
2024/04/18 11:47:20;;;;;;;;;;;;;;;12.22;82.98;93770.63;11231535;26;20001;-74
2024/04/18 11:52:20;;;;;;;;;;;;;;;12.50;80.06;93765.09;11207556;26;19936;-74
2024/04/18 11:57:20;;;;;;;;;;;;;;;12.51;78.30;93765.91;11256016;26;20351;-74
2024/04/18 12:02:20;;;;;;;;;;;;;;;12.72;70.17;93776.94;11198979;26;20002;-74
2024/04/18 12:07:21;;;;;;;;;;;;;;;13.08;68.21;93767.91;11181345;26;20372;-74
2024/04/18 12:12:22;;;;;;;;;;;;;;;12.51;64.01;93772.06;11255542;26;20305;-73
2024/04/18 12:17:23;;;;;;;;;;;;;;;13.16;66.36;93770.63;11252605;26;19934;-74
2024/04/18 12:22:23;;;;;;;;;;;;;;;13.37;59.47;93775.47;11229168;26;19929;-74
2024/04/18 12:27:23;;;;;;;;;;;;;;;13.04;57.49;93770.41;11246783;26;19929;-74
2024/04/18 12:32:25;;;;;;;;;;;;;;;12.79;61.41;93775.38;11249320;26;19929;-74
2024/04/18 12:37:25;;;;;;;;;;;;;;;13.15;58.83;93774.41;11200329;26;20351;-74
2024/04/18 12:42:25;;;;;;;;;;;;;;;13.11;56.45;93775.34;11220034;26;19937;-74
2024/04/18 12:47:25;;;;;;;;;;;;;;;12.96;61.00;93787.34;11243855;26;20026;-73
2024/04/18 12:52:26;;;;;;;;;;;;;;;12.94;62.89;93778.78;11252771;26;19928;-74
2024/04/18 12:57:26;;;;;;;;;;;;;;;13.12;56.81;93777.75;11243729;26;19944;-76
2024/04/18 13:02:26;;;;;;;;;;;;;;;12.95;58.09;93780.38;11253325;26;19936;-74
2024/04/18 13:07:26;;;;;;;;;;;;;;;12.97;56.51;93781.66;11254001;26;20267;-74
2024/04/18 13:12:27;;;;;;;;;;;;;;;12.86;55.59;93787.63;11245450;26;19948;-75
2024/04/18 13:17:27;;;;;;;;;;;;;;;12.46;58.25;93781.09;11253680;26;19928;-74
2024/04/18 13:22:28;;;;;;;;;;;;;;;12.26;58.72;93789.69;11242940;26;19935;-74
2024/04/18 13:27:30;;;;;;;;;;;;;;;12.30;61.92;93794.13;11233670;26;19928;-74
2024/04/18 13:32:31;;;;;;;;;;;;;;;12.14;63.16;93796.41;11231957;26;19940;-74
2024/04/18 13:37:32;;;;;;;;;;;;;;;12.27;69.43;93793.97;11221293;26;19935;-74
2024/04/18 13:42:32;;;;;;;;;;;;;;;12.46;71.50;93791.88;11252670;26;19928;-75
2024/04/18 13:47:32;;;;;;;;;;;;;;;12.41;67.61;93800.09;11252168;26;20748;-75
2024/04/18 13:52:32;;;;;;;;;;;;;;;12.40;68.97;93793.09;11247101;26;19940;-74
2024/04/18 13:57:33;;;;;;;;;;;;;;;12.33;63.71;93787.34;11253932;26;19935;-74
2024/04/18 14:02:33;;;;;;;;;;;;;;;12.11;65.28;93790.84;11245534;26;19939;-74
2024/04/18 14:07:33;;;;;;;;;;;;;;;12.10;63.26;93794.66;11250813;26;20084;-74
2024/04/18 14:12:33;;;;;;;;;;;;;;;12.10;77.79;93802.72;11232128;26;19929;-74
2024/04/18 14:22:53;;;;;;;;;;;;;;;11.93;82.46;93803.34;11239642;26;19936;-74
2024/04/18 14:27:53;;;;;;;;;;;;;;;11.87;78.09;93805.34;11252193;26;19941;-74
2024/04/18 14:32:53;;;;;;;;;;;;;;;11.89;80.20;93805.03;11251650;26;19941;-73
2024/04/18 14:37:53;;;;;;;;;;;;;;;11.80;86.29;93804.97;11191929;26;20362;-74
2024/04/18 14:42:54;;;;;;;;;;;;;;;11.70;80.30;93803.31;11237756;26;19928;-74
2024/04/18 14:47:54;;;;;;;;;;;;;;;11.45;79.41;93807.34;11251206;26;19934;-74
2024/04/18 14:52:54;;;;;;;;;;;;;;;11.50;82.26;93815.31;11250246;26;20297;-74
2024/04/18 14:57:55;;;;;;;;;;;;;;;11.51;79.48;93824.19;11209677;26;19936;-74
2024/04/18 15:02:55;;;;;;;;;;;;;;;11.51;80.97;93816.91;11217137;26;19933;-74
2024/04/18 15:07:55;;;;;;;;;;;;;;;11.45;81.05;93821.59;11216644;26;19933;-74
2024/04/18 15:12:56;;;;;;;;;;;;;;;11.52;78.76;93828.47;11217471;26;19928;-73
2024/04/18 15:17:56;;;;;;;;;;;;;;;11.51;80.07;93825.00;11212478;26;19976;-74
2024/04/18 15:22:56;;;;;;;;;;;;;;;11.28;77.89;93829.47;11257294;26;20079;-74
2024/04/18 15:27:56;;;;;;;;;;;;;;;11.27;81.78;93827.88;11258391;26;19940;-74
2024/04/18 15:32:56;;;;;;;;;;;;;;;11.08;86.05;93836.84;11223615;26;19936;-74
2024/04/18 15:37:57;;;;;;;;;;;;;;;10.98;85.50;93842.44;11217004;26;19965;-74
2024/04/18 15:42:57;;;;;;;;;;;;;;;10.97;85.28;93851.59;11244516;26;19936;-73
2024/04/18 15:47:57;;;;;;;;;;;;;;;10.97;88.03;93856.97;11217512;26;19947;-74
2024/04/18 15:52:57;;;;;;;;;;;;;;;10.95;84.33;93856.44;11256847;26;19929;-74
2024/04/18 15:57:58;;;;;;;;;;;;;;;10.89;93.50;93866.50;11256929;26;20609;-75
2024/04/18 16:02:58;;;;;;;;;;;;;;;10.82;93.47;93871.47;11223073;26;20548;-73
2024/04/18 16:07:58;;;;;;;;;;;;;;;10.93;92.10;93877.47;11251688;26;19928;-74
2024/04/18 16:12:58;;;;;;;;;;;;;;;10.97;83.90;93877.66;11223541;26;19960;-74
2024/04/18 16:17:59;;;;;;;;;;;;;;;10.94;86.51;93901.38;11247680;26;19928;-74
2024/04/18 16:23:05;;;;;;;;;;;;;;;11.03;89.77;93898.78;11222742;26;19932;-74
2024/04/18 16:28:06;;;;;;;;;;;;;;;11.13;85.19;93897.81;11221714;26;20294;-73
2024/04/18 16:33:06;;;;;;;;;;;;;;;11.09;75.93;93911.06;11254919;26;19940;-74
2024/04/18 16:38:06;;;;;;;;;;;;;;;10.94;80.09;93925.56;11179028;26;19937;-74
2024/04/18 16:43:09;;;;;;;;;;;;;;;10.86;76.61;93938.88;11235518;26;19936;-74
2024/04/18 16:48:10;;;;;;;;;;;;;;;10.91;79.38;93949.53;11254995;26;20010;-74
2024/04/18 16:53:10;;;;;;;;;;;;;;;10.86;88.77;93952.31;11223293;26;19928;-74
2024/04/18 16:58:10;;;;;;;;;;;;;;;10.72;85.27;93960.34;11219974;26;20370;-73
2024/04/18 17:03:10;;;;;;;;;;;;;;;10.55;83.45;93963.56;11253945;26;19932;-73
2024/04/18 17:08:11;;;;;;;;;;;;;;;10.31;84.97;93974.34;11223514;26;19928;-74
2024/04/18 17:13:11;;;;;;;;;;;;;;;10.13;91.30;93987.47;11251742;26;19929;-74
2024/04/18 17:18:12;;;;;;;;;;;;;;;9.95;94.27;93998.94;11231276;26;19936;-74
2024/04/18 17:23:12;;;;;;;;;;;;;;;9.81;94.82;94001.53;11236112;26;20374;-74
2024/04/18 17:28:12;;;;;;;;;;;;;;;9.39;100.00;94004.66;11253662;26;19928;-73
2024/04/18 17:33:12;;;;;;;;;;;;;;;9.18;100.00;94013.97;11253970;26;20302;-73
2024/04/18 17:38:13;;;;;;;;;;;;;;;9.03;100.00;94017.59;11252908;26;19952;-74
2024/04/18 17:43:14;;;;;;;;;;;;;;;9.00;100.00;94039.56;11211076;26;19929;-74
2024/04/18 17:48:15;;;;;;;;;;;;;;;8.82;100.00;94043.72;11220689;26;19940;-74
2024/04/18 17:53:15;;;;;;;;;;;;;;;8.67;100.00;94050.00;11285022;26;19932;-74
2024/04/18 17:58:15;;;;;;;;;;;;;;;8.44;100.00;94056.78;11279241;26;19964;-74
2024/04/18 18:03:15;;;;;;;;;;;;;;;8.33;100.00;94059.53;11209202;26;19964;-73
2024/04/18 18:08:16;;;;;;;;;;;;;;;8.37;100.00;94075.84;11251038;26;20347;-74
2024/04/18 18:13:17;;;;;;;;;;;;;;;8.39;100.00;94093.22;11252084;26;19928;-73
2024/04/18 18:18:17;;;;;;;;;;;;;;;8.21;100.00;94091.97;11221072;26;19928;-74
2024/04/18 18:23:18;;;;;;;;;;;;;;;8.24;100.00;94098.66;11252036;26;19928;-74
2024/04/18 18:28:18;;;;;;;;;;;;;;;8.15;100.00;94105.63;11252045;26;20014;-74
2024/04/18 18:33:19;;;;;;;;;;;;;;;8.23;100.00;94106.97;11246233;26;20007;-73
2024/04/18 18:38:19;;;;;;;;;;;;;;;8.06;100.00;94120.66;11248967;26;20305;-74
2024/04/18 18:43:19;;;;;;;;;;;;;;;8.12;100.00;94124.94;11248902;26;19929;-74
2024/04/18 18:48:20;;;;;;;;;;;;;;;7.92;100.00;94128.47;11200246;26;19940;-74
2024/04/18 18:53:20;;;;;;;;;;;;;;;7.92;100.00;94129.25;11226461;26;19940;-73
2024/04/18 18:58:20;;;;;;;;;;;;;;;7.75;100.00;94132.25;11244028;26;19928;-73
2024/04/18 19:03:20;;;;;;;;;;;;;;;7.63;100.00;94143.22;11250265;26;19932;-73
2024/04/18 19:08:20;;;;;;;;;;;;;;;7.61;100.00;94157.94;11251790;26;20375;-73
2024/04/18 19:13:21;;;;;;;;;;;;;;;7.65;100.00;94167.81;11231015;26;19937;-73
2024/04/18 19:18:21;;;;;;;;;;;;;;;7.73;100.00;94184.41;11250787;26;20351;-73
2024/04/18 19:23:34;;;;;;;;;;;;;;;7.77;100.00;94186.28;11248404;26;19929;-74
2024/04/18 19:28:34;;;;;;;;;;;;;;;7.67;100.00;94178.25;11222887;26;19932;-73
2024/04/18 19:33:35;;;;;;;;;;;;;;;7.65;100.00;94183.88;11230784;26;20362;-73
2024/04/18 19:38:36;;;;;;;;;;;;;;;7.57;100.00;94191.63;11249510;26;19929;-73
2024/04/18 19:43:36;;;;;;;;;;;;;;;7.50;100.00;94190.00;11209771;26;20363;-73
2024/04/18 19:48:36;;;;;;;;;;;;;;;7.51;100.00;94193.50;11238083;26;19929;-73
2024/04/18 19:53:36;;;;;;;;;;;;;;;7.53;100.00;94194.03;11233868;26;20348;-73
2024/04/18 19:58:37;;;;;;;;;;;;;;;7.45;100.00;94207.91;11217235;26;19928;-73
2024/04/18 20:03:37;;;;;;;;;;;;;;;7.39;100.00;94201.78;11243538;26;20272;-73
2024/04/18 20:08:37;;;;;;;;;;;;;;;7.27;100.00;94207.38;11223115;26;19929;-72
2024/04/18 20:13:38;;;;;;;;;;;;;;;7.16;100.00;94219.91;11234203;26;20251;-73
2024/04/18 20:18:38;;;;;;;;;;;;;;;6.99;100.00;94225.50;11250142;26;20330;-74
2024/04/18 20:23:38;;;;;;;;;;;;;;;7.10;100.00;94228.19;11224803;26;19929;-74
2024/04/18 20:28:38;;;;;;;;;;;;;;;7.03;100.00;94225.75;11254166;26;19948;-74
2024/04/18 20:33:38;;;;;;;;;;;;;;;6.97;100.00;94222.25;11234084;26;19928;-73
2024/04/18 20:38:39;;;;;;;;;;;;;;;6.84;100.00;94209.41;11255360;26;20432;-73
2024/04/18 20:43:39;;;;;;;;;;;;;;;6.85;100.00;94213.69;11253327;26;19935;-73
2024/04/18 20:48:39;;;;;;;;;;;;;;;6.73;100.00;94224.59;11209705;26;19929;-73
2024/04/18 20:53:39;;;;;;;;;;;;;;;6.65;100.00;94217.88;11189062;26;19940;-74
2024/04/18 20:58:40;;;;;;;;;;;;;;;6.66;100.00;94219.50;11229528;26;19940;-73
2024/04/18 21:03:40;;;;;;;;;;;;;;;6.55;100.00;94217.84;11251509;26;19968;-73
2024/04/18 21:08:41;;;;;;;;;;;;;;;6.60;100.00;94212.53;11250589;26;19940;-73
2024/04/18 21:13:41;;;;;;;;;;;;;;;6.56;100.00;94214.13;11224854;26;19937;-72
2024/04/18 21:18:42;;;;;;;;;;;;;;;6.41;100.00;94222.84;11234789;26;19936;-73
2024/04/18 21:23:43;;;;;;;;;;;;;;;6.43;100.00;94220.75;11252979;26;19944;-73
2024/04/18 21:28:43;;;;;;;;;;;;;;;6.38;100.00;94223.38;11255037;26;19928;-73
2024/04/18 21:33:43;;;;;;;;;;;;;;;6.40;100.00;94223.13;11254418;26;20239;-73
2024/04/18 21:38:43;;;;;;;;;;;;;;;6.30;100.00;94229.19;11250890;26;19943;-73
2024/04/18 21:43:43;;;;;;;;;;;;;;;6.25;100.00;94234.50;11253639;26;19932;-73
2024/04/18 21:48:44;;;;;;;;;;;;;;;6.33;100.00;94236.69;11249781;26;19940;-73
2024/04/18 21:53:44;;;;;;;;;;;;;;;6.32;100.00;94237.75;11236194;26;19932;-74
2024/04/18 21:58:44;;;;;;;;;;;;;;;6.48;100.00;94243.97;11220257;26;20308;-73
2024/04/18 22:03:44;;;;;;;;;;;;;;;6.50;100.00;94252.53;11250620;26;19939;-74
2024/04/18 22:08:45;;;;;;;;;;;;;;;6.41;100.00;94257.56;11219994;26;19938;-74
2024/04/18 22:13:45;;;;;;;;;;;;;;;6.28;100.00;94250.81;11249475;26;19940;-74
2024/04/18 22:18:45;;;;;;;;;;;;;;;6.25;100.00;94259.34;11251799;26;20657;-72
2024/04/18 22:23:46;;;;;;;;;;;;;;;6.32;100.00;94254.56;11251542;26;20388;-73
2024/04/18 22:28:46;;;;;;;;;;;;;;;6.29;100.00;94262.28;11225921;26;19933;-73
2024/04/18 22:33:46;;;;;;;;;;;;;;;6.24;100.00;94256.94;11243030;26;19943;-73
2024/04/18 22:38:46;;;;;;;;;;;;;;;6.25;100.00;94259.34;11252135;26;19936;-73
2024/04/18 22:43:47;;;;;;;;;;;;;;;6.30;100.00;94262.03;11247446;26;20005;-73
2024/04/18 22:48:47;;;;;;;;;;;;;;;6.27;100.00;94261.75;11244856;26;19940;-73
2024/04/18 22:53:47;;;;;;;;;;;;;;;6.22;100.00;94262.50;11252338;26;20342;-73
2024/04/18 22:58:49;;;;;;;;;;;;;;;6.17;100.00;94267.81;11248953;26;19932;-72
2024/04/18 23:03:49;;;;;;;;;;;;;;;6.13;100.00;94266.72;11218111;26;20228;-73
2024/04/18 23:08:50;;;;;;;;;;;;;;;6.07;100.00;94273.91;11211626;26;19929;-73
2024/04/18 23:13:50;;;;;;;;;;;;;;;6.05;100.00;94260.00;11248927;26;19929;-73
2024/04/18 23:18:50;;;;;;;;;;;;;;;6.03;100.00;94266.63;11248948;26;19940;-73
2024/04/18 23:23:50;;;;;;;;;;;;;;;6.02;100.00;94265.06;11246714;26;19936;-72
2024/04/18 23:28:50;;;;;;;;;;;;;;;5.87;100.00;94269.16;11183810;26;20336;-73
2024/04/18 23:33:51;;;;;;;;;;;;;;;5.90;100.00;94274.00;11197005;26;19929;-72
2024/04/18 23:38:51;;;;;;;;;;;;;;;5.81;100.00;94275.53;11237485;26;20308;-73
2024/04/18 23:43:51;;;;;;;;;;;;;;;5.78;100.00;94270.72;11257210;26;19929;-73
2024/04/18 23:48:51;;;;;;;;;;;;;;;5.60;100.00;94269.22;11222109;26;20761;-73
2024/04/18 23:53:52;;;;;;;;;;;;;;;5.54;100.00;94270.22;11254281;26;19940;-73
2024/04/18 23:58:53;;;;;;;;;;;;;;;5.46;100.00;94279.50;11250274;26;19936;-73
